createdAt,value
2023-03-20T00:00:51.210Z,14.72
2023-03-20T00:01:51.202Z,14.73
2023-03-20T00:02:51.172Z,14.77
2023-03-20T00:03:51.235Z,14.69
2023-03-20T00:04:51.280Z,14.72
2023-03-20T00:05:51.174Z,14.68
2023-03-20T00:06:51.126Z,14.70
2023-03-20T00:07:51.183Z,14.73
2023-03-20T00:08:51.106Z,14.69
2023-03-20T00:09:51.125Z,14.78
2023-03-20T00:10:51.090Z,14.69
2023-03-20T00:11:51.141Z,14.69
2023-03-20T00:12:51.062Z,14.72
2023-03-20T00:13:51.062Z,14.77
2023-03-20T00:14:52.051Z,14.69
2023-03-20T00:15:51.124Z,14.69
2023-03-20T00:16:52.051Z,14.73
2023-03-20T00:17:51.010Z,14.72
2023-03-20T00:18:51.054Z,14.70
2023-03-20T00:19:52.026Z,14.73
2023-03-20T00:20:50.952Z,14.73
2023-03-20T00:21:50.992Z,14.68
2023-03-20T00:22:51.105Z,14.72
2023-03-20T00:23:50.936Z,14.72
2023-03-20T00:24:50.924Z,14.70
2023-03-20T00:25:51.931Z,14.73
2023-03-20T00:26:50.961Z,14.73
2023-03-20T00:27:50.896Z,14.70
2023-03-20T00:28:50.907Z,14.66
2023-03-20T00:29:51.886Z,14.66
2023-03-20T00:30:50.890Z,14.77
2023-03-20T00:31:50.937Z,14.70
2023-03-20T00:32:50.921Z,14.73
2023-03-20T00:33:50.838Z,14.70
2023-03-20T00:34:50.802Z,14.70
2023-03-20T00:35:50.917Z,14.66
2023-03-20T00:36:50.810Z,14.68
2023-03-20T00:37:50.815Z,14.55
2023-03-20T00:38:50.814Z,14.69
2023-03-20T00:39:50.805Z,14.62
2023-03-20T00:40:50.730Z,14.63
2023-03-20T00:41:50.742Z,14.59
2023-03-20T00:42:50.786Z,14.62
2023-03-20T00:43:50.825Z,14.63
2023-03-20T00:44:50.767Z,14.53
2023-03-20T00:45:50.716Z,14.53
2023-03-20T00:46:50.742Z,14.53
2023-03-20T00:47:50.751Z,14.48
2023-03-20T00:48:50.772Z,14.48
2023-03-20T00:49:50.652Z,14.50
2023-03-20T00:50:51.668Z,14.51
2023-03-20T00:51:50.633Z,14.50
2023-03-20T00:52:50.617Z,14.50
2023-03-20T00:53:50.591Z,14.48
2023-03-20T00:54:50.642Z,14.43
2023-03-20T00:55:50.575Z,14.44
2023-03-20T00:56:50.612Z,14.44
2023-03-20T00:57:50.550Z,14.36
2023-03-20T00:58:50.539Z,14.48
2023-03-20T00:59:50.569Z,14.50
2023-03-20T01:00:50.544Z,14.45
2023-03-20T01:01:50.540Z,14.47
2023-03-20T01:02:50.551Z,14.45
2023-03-20T01:03:50.576Z,14.36
2023-03-20T01:04:50.485Z,14.35
2023-03-20T01:05:50.470Z,14.36
2023-03-20T01:06:51.486Z,14.37
2023-03-20T01:07:50.472Z,14.37
2023-03-20T01:08:50.470Z,14.40
2023-03-20T01:09:50.463Z,14.41
2023-03-20T01:10:50.527Z,14.37
2023-03-20T01:11:51.109Z,14.40
2023-03-20T01:12:50.384Z,14.35
2023-03-20T01:13:51.400Z,14.29
2023-03-20T01:14:50.382Z,14.20
2023-03-20T01:15:50.372Z,14.30
2023-03-20T01:16:50.427Z,14.28
2023-03-20T01:17:50.395Z,14.25
2023-03-20T01:18:51.398Z,14.25
2023-03-20T01:19:50.343Z,14.29
2023-03-20T01:20:50.349Z,14.33
2023-03-20T01:21:50.269Z,14.25
2023-03-20T01:22:50.313Z,14.28
2023-03-20T01:23:50.320Z,14.26
2023-03-20T01:24:50.258Z,14.25
2023-03-20T01:25:50.262Z,14.28
2023-03-20T01:26:51.291Z,14.32
2023-03-20T01:27:50.209Z,14.18
2023-03-20T01:28:50.251Z,14.23
2023-03-20T01:29:50.239Z,14.32
2023-03-20T01:30:50.205Z,14.23
2023-03-20T01:31:50.240Z,14.28
2023-03-20T01:32:50.227Z,14.26
2023-03-20T01:33:50.175Z,14.18
2023-03-20T01:34:51.209Z,14.18
2023-03-20T01:35:50.258Z,14.22
2023-03-20T01:36:50.161Z,14.22
2023-03-20T01:37:50.121Z,14.18
2023-03-20T01:38:50.092Z,14.22
2023-03-20T01:39:50.090Z,14.20
2023-03-20T01:40:50.107Z,14.20
2023-03-20T01:41:50.106Z,14.15
2023-03-20T01:42:50.059Z,14.11
2023-03-20T01:43:50.077Z,14.10
2023-03-20T01:44:51.066Z,14.10
2023-03-20T01:45:50.078Z,14.11
2023-03-20T01:46:50.039Z,14.08
2023-03-20T01:47:50.002Z,14.03
2023-03-20T01:48:51.121Z,14.11
2023-03-20T01:49:50.028Z,13.93
2023-03-20T01:50:50.977Z,13.93
2023-03-20T01:51:50.044Z,13.95
2023-03-20T01:52:50.965Z,14.05
2023-03-20T01:53:50.951Z,14.03
2023-03-20T01:54:49.962Z,14.03
2023-03-20T01:55:49.934Z,14.03
2023-03-20T01:56:49.902Z,14.03
2023-03-20T01:57:49.994Z,13.99
2023-03-20T01:58:49.912Z,14.04
2023-03-20T01:59:49.907Z,13.97
2023-03-20T02:00:50.024Z,13.99
2023-03-20T02:01:49.914Z,14.00
2023-03-20T02:02:49.844Z,14.00
2023-03-20T02:03:49.847Z,13.95
2023-03-20T02:04:49.913Z,13.97
2023-03-20T02:05:49.802Z,13.99
2023-03-20T02:06:49.882Z,13.92
2023-03-20T02:07:49.833Z,13.96
2023-03-20T02:08:49.769Z,14.04
2023-03-20T02:09:49.831Z,14.04
2023-03-20T02:10:49.751Z,13.95
2023-03-20T02:11:49.772Z,14.00
2023-03-20T02:12:50.496Z,14.03
2023-03-20T02:13:49.713Z,13.99
2023-03-20T02:14:49.735Z,14.05
2023-03-20T02:15:49.682Z,14.05
2023-03-20T02:16:49.751Z,13.99
2023-03-20T02:17:50.698Z,13.96
2023-03-20T02:18:49.686Z,14.00
2023-03-20T02:19:50.676Z,13.93
2023-03-20T02:20:49.697Z,13.92
2023-03-20T02:21:49.652Z,13.90
2023-03-20T02:22:49.616Z,13.92
2023-03-20T02:23:49.651Z,13.92
2023-03-20T02:24:49.595Z,13.90
2023-03-20T02:25:49.631Z,13.96
2023-03-20T02:26:49.582Z,13.95
2023-03-20T02:27:50.550Z,13.89
2023-03-20T02:28:49.583Z,13.92
2023-03-20T02:29:49.587Z,13.86
2023-03-20T02:30:50.566Z,13.93
2023-03-20T02:31:50.507Z,13.85
2023-03-20T02:32:49.560Z,13.85
2023-03-20T02:33:49.484Z,13.83
2023-03-20T02:34:50.608Z,13.79
2023-03-20T02:35:49.508Z,13.79
2023-03-20T02:36:50.466Z,13.92
2023-03-20T02:37:49.457Z,13.75
2023-03-20T02:38:49.424Z,13.83
2023-03-20T02:39:49.473Z,13.78
2023-03-20T02:40:49.461Z,13.79
2023-03-20T02:41:49.514Z,13.85
2023-03-20T02:42:49.395Z,13.81
2023-03-20T02:43:49.428Z,13.83
2023-03-20T02:44:49.397Z,13.83
2023-03-20T02:45:49.441Z,13.90
2023-03-20T02:46:50.421Z,13.89
2023-03-20T02:47:49.353Z,13.85
2023-03-20T02:48:49.377Z,13.85
2023-03-20T02:49:49.314Z,13.85
2023-03-20T02:50:49.321Z,13.90
2023-03-20T02:51:49.287Z,13.86
2023-03-20T02:52:49.308Z,13.79
2023-03-20T02:53:49.317Z,13.89
2023-03-20T02:54:49.261Z,13.89
2023-03-20T02:55:49.268Z,13.85
2023-03-20T02:56:49.266Z,13.89
2023-03-20T02:57:49.238Z,13.92
2023-03-20T02:58:49.254Z,13.87
2023-03-20T02:59:50.281Z,13.87
2023-03-20T03:00:49.257Z,13.93
2023-03-20T03:01:50.292Z,13.92
2023-03-20T03:02:49.264Z,13.99
2023-03-20T03:03:49.171Z,14.03
2023-03-20T03:04:49.138Z,14.04
2023-03-20T03:05:50.165Z,14.04
2023-03-20T03:06:49.164Z,14.04
2023-03-20T03:07:49.132Z,14.05
2023-03-20T03:08:49.121Z,14.11
2023-03-20T03:09:49.119Z,14.03
2023-03-20T03:10:49.153Z,13.92
2023-03-20T03:11:49.115Z,13.97
2023-03-20T03:12:49.060Z,14.03
2023-03-20T03:13:49.050Z,14.11
2023-03-20T03:14:49.085Z,14.05
2023-03-20T03:15:49.111Z,14.05
2023-03-20T03:16:49.039Z,13.92
2023-03-20T03:17:50.023Z,14.04
2023-03-20T03:18:49.024Z,13.97
2023-03-20T03:19:48.995Z,13.97
2023-03-20T03:20:48.986Z,14.03
2023-03-20T03:21:48.963Z,14.04
2023-03-20T03:22:48.991Z,13.99
2023-03-20T03:23:49.979Z,14.05
2023-03-20T03:24:48.932Z,14.05
2023-03-20T03:25:49.974Z,14.03
2023-03-20T03:26:49.949Z,14.08
2023-03-20T03:27:48.916Z,14.00
2023-03-20T03:28:48.911Z,14.03
2023-03-20T03:29:48.865Z,13.97
2023-03-20T03:30:48.904Z,13.93
2023-03-20T03:31:49.909Z,13.92
2023-03-20T03:32:48.873Z,13.95
2023-03-20T03:33:48.863Z,13.95
2023-03-20T03:34:48.819Z,13.90
2023-03-20T03:35:49.970Z,13.95
2023-03-20T03:36:48.802Z,13.95
2023-03-20T03:37:48.794Z,13.86
2023-03-20T03:38:48.810Z,13.83
2023-03-20T03:39:48.774Z,13.87
2023-03-20T03:40:48.749Z,13.86
2023-03-20T03:41:48.729Z,13.90
2023-03-20T03:42:48.736Z,13.83
2023-03-20T03:43:48.823Z,13.86
2023-03-20T03:44:48.759Z,13.86
2023-03-20T03:45:48.697Z,13.85
2023-03-20T03:46:48.742Z,13.86
2023-03-20T03:47:48.692Z,13.78
2023-03-20T03:48:48.684Z,13.90
2023-03-20T03:49:48.685Z,13.87
2023-03-20T03:50:49.697Z,13.81
2023-03-20T03:51:48.614Z,13.70
2023-03-20T03:52:49.622Z,13.75
2023-03-20T03:53:49.643Z,13.78
2023-03-20T03:54:48.594Z,13.72
2023-03-20T03:55:49.563Z,13.72
2023-03-20T03:56:49.574Z,13.71
2023-03-20T03:57:48.561Z,13.67
2023-03-20T03:58:48.591Z,13.70
2023-03-20T03:59:48.570Z,13.71
2023-03-20T04:00:49.529Z,13.68
2023-03-20T04:01:48.673Z,13.57
2023-03-20T04:02:48.529Z,13.57
2023-03-20T04:03:48.562Z,13.63
2023-03-20T04:04:48.566Z,13.60
2023-03-20T04:05:48.481Z,13.56
2023-03-20T04:06:49.482Z,13.65
2023-03-20T04:07:48.455Z,13.56
2023-03-20T04:08:48.509Z,13.57
2023-03-20T04:09:48.438Z,13.53
2023-03-20T04:10:48.425Z,13.56
2023-03-20T04:11:48.463Z,13.60
2023-03-20T04:12:48.427Z,13.59
2023-03-20T04:13:48.402Z,13.59
2023-03-20T04:14:48.410Z,13.68
2023-03-20T04:15:48.385Z,13.68
2023-03-20T04:16:49.383Z,13.72
2023-03-20T04:17:48.381Z,13.70
2023-03-20T04:18:48.354Z,13.70
2023-03-20T04:19:48.338Z,13.65
2023-03-20T04:20:48.290Z,13.62
2023-03-20T04:21:48.352Z,13.39
2023-03-20T04:22:49.334Z,13.39
2023-03-20T04:23:48.285Z,13.38
2023-03-20T04:24:48.273Z,13.44
2023-03-20T04:25:48.298Z,13.50
2023-03-20T04:26:48.289Z,13.56
2023-03-20T04:27:48.246Z,13.52
2023-03-20T04:28:48.248Z,13.56
2023-03-20T04:29:49.233Z,13.62
2023-03-20T04:30:48.292Z,13.59
2023-03-20T04:31:48.263Z,13.65
2023-03-20T04:32:48.253Z,13.67
2023-03-20T04:33:49.156Z,13.63
2023-03-20T04:34:48.137Z,13.59
2023-03-20T04:35:48.216Z,13.53
2023-03-20T04:36:48.157Z,13.57
2023-03-20T04:37:48.152Z,13.53
2023-03-20T04:38:49.132Z,13.53
2023-03-20T04:39:48.129Z,13.54
2023-03-20T04:40:48.078Z,13.53
2023-03-20T04:41:48.097Z,13.49
2023-03-20T04:42:48.100Z,13.56
2023-03-20T04:43:48.049Z,13.62
2023-03-20T04:44:48.066Z,13.60
2023-03-20T04:45:48.111Z,13.59
2023-03-20T04:46:48.022Z,13.57
2023-03-20T04:47:48.009Z,13.65
2023-03-20T04:48:49.068Z,13.65
2023-03-20T04:49:48.004Z,13.59
2023-03-20T04:50:48.000Z,13.59
2023-03-20T04:51:48.020Z,13.60
2023-03-20T04:52:48.004Z,13.57
2023-03-20T04:53:47.987Z,13.62
2023-03-20T04:54:47.936Z,13.72
2023-03-20T04:55:48.950Z,13.62
2023-03-20T04:56:47.967Z,13.75
2023-03-20T04:57:47.943Z,13.75
2023-03-20T04:58:47.886Z,13.74
2023-03-20T04:59:47.993Z,13.68
2023-03-20T05:00:48.900Z,13.71
2023-03-20T05:01:47.887Z,13.71
2023-03-20T05:02:47.912Z,13.67
2023-03-20T05:03:47.915Z,13.83
2023-03-20T05:04:47.897Z,13.70
2023-03-20T05:05:48.814Z,13.70
2023-03-20T05:06:47.801Z,13.74
2023-03-20T05:07:48.824Z,13.74
2023-03-20T05:08:47.817Z,13.83
2023-03-20T05:09:48.836Z,13.68
2023-03-20T05:10:47.754Z,13.75
2023-03-20T05:11:47.767Z,13.72
2023-03-20T05:12:47.899Z,13.78
2023-03-20T05:13:47.765Z,13.70
2023-03-20T05:14:48.752Z,13.65
2023-03-20T05:15:47.704Z,13.70
2023-03-20T05:16:47.786Z,13.68
2023-03-20T05:17:51.629Z,13.78
2023-03-20T05:18:48.692Z,13.78
2023-03-20T05:19:48.690Z,13.85
2023-03-20T05:20:48.691Z,13.77
2023-03-20T05:21:47.685Z,13.77
2023-03-20T05:22:47.665Z,13.72
2023-03-20T05:23:47.669Z,13.71
2023-03-20T05:24:47.641Z,13.74
2023-03-20T05:25:47.651Z,13.72
2023-03-20T05:26:48.598Z,13.85
2023-03-20T05:27:47.605Z,13.83
2023-03-20T05:28:48.413Z,13.81
2023-03-20T05:29:47.576Z,13.79
2023-03-20T05:30:47.577Z,13.85
2023-03-20T05:31:47.538Z,13.83
2023-03-20T05:32:47.578Z,13.77
2023-03-20T05:33:47.566Z,13.83
2023-03-20T05:34:47.496Z,13.81
2023-03-20T05:35:47.533Z,13.89
2023-03-20T05:36:48.536Z,13.90
2023-03-20T05:37:48.449Z,13.87
2023-03-20T05:38:48.481Z,13.90
2023-03-20T05:39:47.585Z,13.83
2023-03-20T05:40:47.441Z,13.92
2023-03-20T05:41:47.474Z,13.83
2023-03-20T05:42:48.430Z,13.87
2023-03-20T05:43:55.060Z,14.07
2023-03-20T05:44:47.405Z,13.99
2023-03-20T05:45:47.415Z,13.92
2023-03-20T05:46:47.364Z,13.92
2023-03-20T05:47:47.350Z,13.85
2023-03-20T05:48:47.388Z,13.87
2023-03-20T05:49:47.335Z,13.92
2023-03-20T05:50:47.301Z,13.96
2023-03-20T05:51:47.368Z,13.93
2023-03-20T05:52:47.308Z,13.86
2023-03-20T05:53:47.272Z,13.96
2023-03-20T05:54:47.298Z,13.97
2023-03-20T05:55:47.315Z,13.97
2023-03-20T05:56:47.352Z,13.93
2023-03-20T05:57:47.252Z,14.03
2023-03-20T05:58:48.208Z,14.03
2023-03-20T05:59:47.208Z,13.96
2023-03-20T06:00:48.245Z,13.96
2023-03-20T06:01:47.244Z,13.99
2023-03-20T06:02:47.758Z,13.99
2023-03-20T06:03:47.276Z,13.96
2023-03-20T06:04:47.155Z,14.03
2023-03-20T06:05:47.160Z,13.99
2023-03-20T06:06:48.163Z,14.05
2023-03-20T06:07:47.150Z,13.96
2023-03-20T06:08:47.122Z,14.08
2023-03-20T06:09:47.118Z,14.10
2023-03-20T06:10:47.116Z,14.04
2023-03-20T06:11:48.110Z,14.10
2023-03-20T06:12:47.093Z,14.03
2023-03-20T06:13:47.079Z,14.11
2023-03-20T06:14:47.058Z,14.17
2023-03-20T06:15:47.096Z,14.07
2023-03-20T06:16:47.024Z,13.96
2023-03-20T06:17:47.030Z,14.04
2023-03-20T06:18:47.015Z,14.00
2023-03-20T06:19:47.008Z,14.08
2023-03-20T06:20:46.993Z,14.07
2023-03-20T06:21:47.979Z,14.08
2023-03-20T06:22:47.008Z,14.07
2023-03-20T06:23:46.964Z,14.11
2023-03-20T06:24:46.965Z,14.22
2023-03-20T06:25:46.943Z,14.12
2023-03-20T06:26:46.914Z,14.20
2023-03-20T06:27:46.990Z,14.17
2023-03-20T06:28:46.943Z,14.17
2023-03-20T06:29:46.883Z,14.11
2023-03-20T06:30:47.004Z,14.08
2023-03-20T06:31:46.880Z,14.10
2023-03-20T06:32:47.936Z,14.05
2023-03-20T06:33:46.902Z,14.07
2023-03-20T06:34:46.852Z,14.07
2023-03-20T06:35:46.912Z,14.08
2023-03-20T06:36:46.798Z,14.08
2023-03-20T06:37:47.838Z,14.17
2023-03-20T06:38:46.816Z,14.15
2023-03-20T06:39:46.805Z,14.17
2023-03-20T06:40:46.772Z,14.18
2023-03-20T06:41:46.774Z,14.15
2023-03-20T06:42:46.770Z,14.17
2023-03-20T06:43:46.926Z,14.15
2023-03-20T06:44:46.772Z,14.12
2023-03-20T06:45:46.732Z,14.15
2023-03-20T06:46:46.758Z,14.17
2023-03-20T06:47:47.693Z,14.17
2023-03-20T06:48:46.701Z,14.22
2023-03-20T06:49:46.688Z,14.12
2023-03-20T06:50:46.690Z,14.17
2023-03-20T06:51:46.726Z,14.23
2023-03-20T06:52:46.656Z,14.22
2023-03-20T06:53:47.621Z,14.20
2023-03-20T06:54:46.629Z,14.15
2023-03-20T06:55:46.648Z,14.18
2023-03-20T06:56:46.614Z,14.18
2023-03-20T06:57:46.558Z,14.15
2023-03-20T06:58:46.581Z,14.22
2023-03-20T06:59:46.566Z,14.17
2023-03-20T07:00:46.582Z,14.17
2023-03-20T07:01:46.549Z,14.26
2023-03-20T07:02:46.549Z,14.22
2023-03-20T07:03:46.552Z,14.29
2023-03-20T07:04:46.603Z,14.23
2023-03-20T07:05:46.470Z,14.33
2023-03-20T07:06:46.527Z,14.23
2023-03-20T07:07:47.472Z,14.26
2023-03-20T07:08:46.489Z,14.28
2023-03-20T07:09:46.435Z,14.25
2023-03-20T07:10:46.469Z,14.23
2023-03-20T07:11:46.428Z,14.22
2023-03-20T07:12:46.431Z,14.15
2023-03-20T07:13:48.696Z,14.28
2023-03-20T07:14:46.441Z,14.33
2023-03-20T07:16:02.957Z,14.33
2023-03-20T07:16:47.424Z,14.32
2023-03-20T07:17:46.345Z,14.50
2023-03-20T07:18:46.391Z,14.44
2023-03-20T07:19:46.346Z,14.50
2023-03-20T07:20:46.327Z,14.50
2023-03-20T07:21:46.381Z,14.36
2023-03-20T07:22:46.328Z,14.30
2023-03-20T07:23:46.333Z,14.33
2023-03-20T07:24:47.395Z,14.32
2023-03-20T07:25:47.798Z,14.33
2023-03-20T07:26:46.304Z,14.25
2023-03-20T07:27:46.315Z,14.26
2023-03-20T07:28:46.238Z,14.28
2023-03-20T07:29:46.229Z,14.28
2023-03-20T07:30:46.249Z,14.33
2023-03-20T07:31:46.298Z,14.37
2023-03-20T07:32:46.209Z,14.35
2023-03-20T07:33:47.298Z,14.29
2023-03-20T07:34:46.170Z,14.32
2023-03-20T07:35:46.256Z,14.40
2023-03-20T07:36:46.188Z,14.35
2023-03-20T07:37:46.174Z,14.32
2023-03-20T07:38:46.156Z,14.35
2023-03-20T07:39:46.135Z,14.48
2023-03-20T07:40:46.099Z,14.32
2023-03-20T07:41:47.123Z,14.41
2023-03-20T07:42:47.083Z,14.36
2023-03-20T07:43:46.072Z,14.25
2023-03-20T07:44:47.154Z,14.32
2023-03-20T07:45:47.122Z,14.36
2023-03-20T07:46:46.047Z,14.33
2023-03-20T07:47:46.112Z,14.45
2023-03-20T07:48:46.032Z,14.48
2023-03-20T07:49:46.003Z,14.53
2023-03-20T07:50:47.014Z,14.55
2023-03-20T07:51:46.012Z,14.63
2023-03-20T07:52:45.962Z,14.77
2023-03-20T07:53:45.995Z,14.73
2023-03-20T07:54:45.968Z,14.69
2023-03-20T07:55:47.427Z,14.72
2023-03-20T07:56:47.012Z,14.77
2023-03-20T07:57:45.915Z,14.70
2023-03-20T07:58:45.959Z,14.81
2023-03-20T07:59:45.926Z,14.85
2023-03-20T08:00:46.052Z,14.91
2023-03-20T08:01:45.936Z,15.00
2023-03-20T08:02:46.155Z,14.97
2023-03-20T08:03:46.025Z,15.00
2023-03-20T08:04:45.844Z,15.00
2023-03-20T08:05:47.312Z,15.00
2023-03-20T08:06:45.805Z,15.06
2023-03-20T08:07:45.868Z,15.00
2023-03-20T08:08:45.841Z,14.97
2023-03-20T08:09:45.790Z,14.99
2023-03-20T08:10:45.799Z,15.02
2023-03-20T08:11:46.759Z,14.94
2023-03-20T08:12:45.894Z,14.84
2023-03-20T08:13:45.731Z,14.99
2023-03-20T08:14:45.791Z,14.89
2023-03-20T08:15:46.795Z,15.06
2023-03-20T08:16:46.784Z,15.02
2023-03-20T08:17:45.743Z,15.10
2023-03-20T08:18:45.728Z,15.03
2023-03-20T08:19:45.694Z,15.10
2023-03-20T08:20:45.672Z,15.14
2023-03-20T08:21:45.651Z,15.21
2023-03-20T08:22:45.766Z,15.10
2023-03-20T08:23:45.670Z,15.22
2023-03-20T08:24:46.906Z,15.15
2023-03-20T08:25:45.863Z,14.99
2023-03-20T08:26:45.672Z,14.97
2023-03-20T08:27:45.680Z,15.10
2023-03-20T08:28:47.826Z,15.17
2023-03-20T08:29:45.550Z,15.11
2023-03-20T08:30:45.603Z,15.19
2023-03-20T08:31:46.544Z,15.17
2023-03-20T08:32:46.657Z,15.27
2023-03-20T08:33:45.530Z,15.36
2023-03-20T08:34:46.545Z,15.35
2023-03-20T08:35:46.717Z,15.46
2023-03-20T08:36:45.494Z,15.44
2023-03-20T08:37:45.497Z,15.54
2023-03-20T08:38:45.468Z,15.59
2023-03-20T08:39:45.477Z,15.64
2023-03-20T08:40:45.483Z,15.57
2023-03-20T08:41:45.492Z,15.58
2023-03-20T08:42:45.409Z,15.59
2023-03-20T08:43:45.508Z,15.64
2023-03-20T08:44:45.402Z,15.58
2023-03-20T08:45:45.466Z,15.44
2023-03-20T08:46:45.407Z,15.37
2023-03-20T08:47:46.373Z,15.36
2023-03-20T08:48:46.397Z,15.15
2023-03-20T08:49:45.380Z,15.11
2023-03-20T08:50:45.432Z,15.19
2023-03-20T08:51:46.373Z,15.27
2023-03-20T08:52:45.345Z,15.27
2023-03-20T08:53:46.306Z,15.24
2023-03-20T08:54:45.330Z,15.29
2023-03-20T08:55:45.280Z,15.29
2023-03-20T08:56:45.307Z,15.24
2023-03-20T08:57:45.308Z,15.17
2023-03-20T08:58:46.249Z,15.00
2023-03-20T08:59:45.308Z,15.00
2023-03-20T09:00:46.240Z,15.10
2023-03-20T09:01:50.218Z,15.02
2023-03-20T09:02:45.281Z,14.86
2023-03-20T09:03:45.209Z,15.00
2023-03-20T09:04:45.228Z,14.82
2023-03-20T09:05:45.279Z,14.96
2023-03-20T09:06:45.228Z,14.97
2023-03-20T09:07:45.223Z,15.09
2023-03-20T09:08:46.117Z,14.99
2023-03-20T09:09:45.101Z,15.10
2023-03-20T09:10:46.105Z,14.96
2023-03-20T09:11:46.110Z,15.10
2023-03-20T09:12:45.124Z,14.84
2023-03-20T09:13:45.103Z,14.81
2023-03-20T09:14:45.094Z,14.81
2023-03-20T09:15:45.139Z,14.85
2023-03-20T09:16:46.057Z,14.79
2023-03-20T09:17:46.057Z,14.72
2023-03-20T09:18:45.826Z,14.77
2023-03-20T09:19:46.019Z,14.92
2023-03-20T09:20:45.037Z,14.69
2023-03-20T09:21:46.010Z,14.72
2023-03-20T09:22:45.021Z,14.85
2023-03-20T09:23:45.020Z,14.92
2023-03-20T09:24:44.948Z,14.84
2023-03-20T09:25:44.952Z,14.82
2023-03-20T09:26:44.952Z,14.78
2023-03-20T09:27:44.976Z,14.82
2023-03-20T09:28:44.975Z,14.86
2023-03-20T09:29:44.909Z,14.73
2023-03-20T09:30:44.924Z,14.77
2023-03-20T09:31:44.916Z,14.66
2023-03-20T09:32:44.916Z,14.79
2023-03-20T09:33:44.861Z,14.79
2023-03-20T09:34:45.002Z,14.81
2023-03-20T09:35:44.893Z,14.78
2023-03-20T09:36:44.844Z,14.86
2023-03-20T09:37:44.814Z,14.78
2023-03-20T09:38:44.882Z,14.62
2023-03-20T09:39:44.822Z,14.77
2023-03-20T09:40:45.800Z,14.68
2023-03-20T09:41:56.247Z,14.77
2023-03-20T09:42:45.766Z,14.63
2023-03-20T09:43:44.762Z,14.62
2023-03-20T09:44:44.775Z,14.70
2023-03-20T09:45:44.715Z,14.62
2023-03-20T09:46:44.791Z,14.70
2023-03-20T09:47:44.744Z,14.88
2023-03-20T09:48:44.699Z,14.82
2023-03-20T09:49:44.688Z,14.77
2023-03-20T09:50:45.666Z,14.88
2023-03-20T09:51:44.723Z,14.81
2023-03-20T09:52:44.663Z,15.00
2023-03-20T09:53:45.651Z,15.07
2023-03-20T09:54:54.150Z,15.02
2023-03-20T09:55:45.919Z,15.02
2023-03-20T09:56:44.645Z,15.02
2023-03-20T09:57:44.643Z,15.06
2023-03-20T09:58:45.574Z,14.97
2023-03-20T09:59:44.567Z,15.00
2023-03-20T10:00:44.549Z,15.03
2023-03-20T10:01:44.648Z,15.00
2023-03-20T10:02:44.575Z,15.11
2023-03-20T10:03:44.532Z,15.07
2023-03-20T10:04:44.551Z,14.97
2023-03-20T10:05:44.525Z,15.00
2023-03-20T10:06:44.519Z,15.00
2023-03-20T10:07:44.496Z,15.06
2023-03-20T10:08:44.555Z,15.11
2023-03-20T10:09:44.448Z,15.09
2023-03-20T10:10:45.452Z,15.15
2023-03-20T10:11:45.484Z,15.07
2023-03-20T10:12:44.452Z,15.06
2023-03-20T10:13:45.529Z,15.17
2023-03-20T10:14:45.459Z,15.10
2023-03-20T10:15:44.400Z,15.11
2023-03-20T10:16:44.422Z,15.10
2023-03-20T10:17:45.431Z,15.07
2023-03-20T10:18:45.353Z,15.15
2023-03-20T10:19:45.366Z,15.22
2023-03-20T10:20:45.319Z,15.02
2023-03-20T10:21:44.465Z,15.02
2023-03-20T10:22:44.342Z,15.00
2023-03-20T10:23:44.399Z,14.84
2023-03-20T10:24:44.280Z,14.91
2023-03-20T10:25:44.273Z,14.99
2023-03-20T10:26:44.318Z,15.06
2023-03-20T10:27:45.281Z,15.03
2023-03-20T10:28:44.267Z,15.02
2023-03-20T10:29:45.211Z,15.11
2023-03-20T10:30:44.259Z,14.97
2023-03-20T10:31:44.252Z,15.02
2023-03-20T10:32:44.274Z,15.09
2023-03-20T10:33:44.227Z,15.14
2023-03-20T10:34:44.212Z,15.15
2023-03-20T10:35:44.191Z,15.11
2023-03-20T10:36:44.154Z,15.15
2023-03-20T10:37:44.193Z,15.24
2023-03-20T10:38:45.124Z,15.25
2023-03-20T10:39:44.146Z,15.19
2023-03-20T10:40:44.116Z,15.24
2023-03-20T10:41:44.146Z,15.22
2023-03-20T10:42:44.090Z,15.14
2023-03-20T10:43:44.120Z,15.10
2023-03-20T10:44:44.091Z,15.24
2023-03-20T10:45:44.092Z,15.22
2023-03-20T10:46:45.133Z,15.19
2023-03-20T10:47:44.123Z,15.14
2023-03-20T10:48:44.006Z,15.14
2023-03-20T10:49:45.053Z,15.11
2023-03-20T10:50:44.010Z,15.17
2023-03-20T10:51:45.013Z,15.09
2023-03-20T10:52:44.005Z,15.06
2023-03-20T10:53:43.964Z,15.10
2023-03-20T10:54:43.959Z,15.04
2023-03-20T10:55:43.999Z,15.11
2023-03-20T10:56:43.975Z,15.11
2023-03-20T10:57:43.931Z,15.18
2023-03-20T10:58:43.916Z,15.14
2023-03-20T10:59:43.927Z,15.10
2023-03-20T11:00:43.992Z,15.27
2023-03-20T11:01:43.905Z,15.24
2023-03-20T11:02:43.907Z,15.31
2023-03-20T11:03:43.982Z,15.25
2023-03-20T11:04:43.852Z,15.14
2023-03-20T11:05:43.869Z,15.14
2023-03-20T11:06:43.879Z,15.17
2023-03-20T11:07:43.876Z,15.17
2023-03-20T11:08:44.876Z,15.09
2023-03-20T11:09:43.853Z,15.11
2023-03-20T11:10:43.813Z,15.19
2023-03-20T11:11:43.781Z,15.02
2023-03-20T11:12:44.794Z,15.09
2023-03-20T11:13:43.748Z,15.11
2023-03-20T11:14:44.804Z,15.11
2023-03-20T11:15:43.768Z,14.97
2023-03-20T11:16:43.781Z,15.04
2023-03-20T11:17:43.751Z,15.02
2023-03-20T11:18:44.696Z,15.00
2023-03-20T11:19:44.717Z,15.02
2023-03-20T11:20:43.729Z,14.92
2023-03-20T11:21:43.660Z,15.00
2023-03-20T11:22:43.686Z,14.96
2023-03-20T11:23:43.650Z,14.96
2023-03-20T11:24:43.621Z,15.06
2023-03-20T11:25:43.614Z,15.10
2023-03-20T11:26:44.650Z,15.07
2023-03-20T11:27:43.607Z,15.11
2023-03-20T11:28:43.607Z,15.07
2023-03-20T11:29:45.825Z,15.17
2023-03-20T11:31:01.389Z,15.04
2023-03-20T11:31:44.677Z,15.02
2023-03-20T11:32:43.569Z,15.07
2023-03-20T11:33:43.576Z,15.06
2023-03-20T11:34:43.602Z,15.10
2023-03-20T11:35:44.234Z,15.03
2023-03-20T11:36:43.541Z,15.10
2023-03-20T11:37:44.566Z,15.02
2023-03-20T11:38:43.479Z,15.07
2023-03-20T11:39:43.466Z,15.06
2023-03-20T11:40:43.485Z,15.00
2023-03-20T11:41:44.221Z,15.07
2023-03-20T11:42:43.425Z,15.00
2023-03-20T11:43:43.420Z,15.10
2023-03-20T11:44:43.397Z,15.24
2023-03-20T11:45:43.539Z,15.15
2023-03-20T11:46:44.329Z,15.10
2023-03-20T11:47:44.462Z,15.14
2023-03-20T11:48:43.377Z,15.18
2023-03-20T11:49:44.347Z,15.21
2023-03-20T11:50:43.388Z,15.31
2023-03-20T11:51:43.323Z,15.27
2023-03-20T11:52:43.320Z,15.35
2023-03-20T11:53:43.299Z,15.43
2023-03-20T11:54:44.322Z,15.47
2023-03-20T11:55:43.281Z,15.44
2023-03-20T11:56:43.251Z,15.43
2023-03-20T11:57:45.545Z,15.58
2023-03-20T11:58:43.237Z,15.58
2023-03-20T11:59:43.269Z,15.59
2023-03-20T12:00:43.229Z,15.47
2023-03-20T12:01:43.214Z,15.44
2023-03-20T12:02:43.259Z,15.51
2023-03-20T12:03:43.276Z,15.54
2023-03-20T12:04:43.210Z,15.46
2023-03-20T12:05:43.183Z,15.49
2023-03-20T12:06:43.155Z,15.40
2023-03-20T12:07:43.169Z,15.42
2023-03-20T12:08:43.224Z,15.51
2023-03-20T12:09:43.182Z,15.55
2023-03-20T12:10:43.180Z,15.55
2023-03-20T12:11:44.127Z,15.57
2023-03-20T12:12:43.113Z,15.59
2023-03-20T12:13:43.085Z,15.62
2023-03-20T12:14:43.092Z,15.52
2023-03-20T12:15:43.071Z,15.57
2023-03-20T12:16:43.722Z,15.58
2023-03-20T12:17:44.056Z,15.61
2023-03-20T12:18:43.038Z,15.58
2023-03-20T12:19:43.073Z,15.61
2023-03-20T12:20:43.007Z,15.61
2023-03-20T12:21:43.055Z,15.54
2023-03-20T12:22:42.993Z,15.61
2023-03-20T12:23:42.981Z,15.58
2023-03-20T12:24:43.995Z,15.61
2023-03-20T12:25:42.960Z,15.58
2023-03-20T12:26:42.948Z,15.68
2023-03-20T12:27:42.910Z,15.67
2023-03-20T12:28:43.054Z,15.62
2023-03-20T12:29:42.906Z,15.59
2023-03-20T12:30:42.922Z,15.52
2023-03-20T12:31:42.917Z,15.44
2023-03-20T12:32:43.927Z,15.33
2023-03-20T12:33:42.891Z,15.33
2023-03-20T12:34:42.876Z,15.35
2023-03-20T12:35:42.893Z,15.31
2023-03-20T12:36:42.876Z,15.28
2023-03-20T12:37:42.839Z,15.21
2023-03-20T12:38:43.898Z,15.28
2023-03-20T12:39:43.690Z,15.39
2023-03-20T12:40:42.896Z,15.40
2023-03-20T12:41:43.794Z,15.46
2023-03-20T12:42:42.787Z,15.46
2023-03-20T12:43:43.758Z,15.47
2023-03-20T12:44:42.819Z,15.46
2023-03-20T12:45:44.795Z,15.46
2023-03-20T12:46:43.833Z,15.55
2023-03-20T12:47:42.727Z,15.54
2023-03-20T12:48:42.729Z,15.55
2023-03-20T12:49:43.676Z,15.43
2023-03-20T12:50:42.730Z,15.49
2023-03-20T12:51:43.699Z,15.59
2023-03-20T12:52:42.659Z,15.59